McKenzie, Alabama
Current Conditions -  °F | °C
As of 3:53 PM on Wednesday 26 Nov 2014 (Local Time) from KGZH Reporting Station
Clear Clear  
Wind Chill: 62°   Ceiling: Unl
Heat Index: 62°   Visibility: 10mi
Dew Point: 29°   Wind: 9mph
Humidity: 29%   Direction: 220°SW
Pressure: 30.14"   Gusts: NA
Location:  31.54°N, 86.71°W
Report Text: KGZH 262153Z AUTO 22008KT 10SM CLR 17/M02 A3014 RMK AO2 SLP205 T01671017
Loading
Personal Weather Stations






























Interactive Weather Map New forecast layout! Learn more

10-Day Weather Forecast

Advertisements
Track Severe Weather on mobile